Terminal Aerodrome Forecast
Issued by NWS Central Illinois

Home | Current Version | Previous Version | Text Only | Print | Product List | Glossary On
Versions: 1 2 3 4 5 6 7 8 9 10 11 12 13 14 15 16 17 18
012
FTUS43 KILX 271241 AAA
TAFSPI
TAF AMD
KSPI 271241Z 2713/2812 20005KT 6SM SHRA VCTS BKN005CB OVC040
      TEMPO 2713/2715 SCT005 OVC035CB
     FM271600 VRB03KT P6SM VCTS OVC025CB
     FM272000 33005KT P6SM VCSH BKN035
     FM272300 35005KT P6SM BKN060=

USA.gov is the U.S. government's official web portal to all federal, state and local government web resources and services.